Time;durP1;ratioP1;P1;durP2;ratioP2;P2;SDS_P1;SDS_P2;PMS_P1;PMS_P2;Temp;Humidity;BMP_temperature;BMP_pressure;BME280_temperature;BME280_humidity;BME280_pressure;Samples;Min_cycle;Max_cycle;Signal;HPM_P1;HPM_P2
2021/04/05 00:01:41;;;;;;;45.70;24.38;;;153.70;2252.80;;;;;;5092586;28;20098;-68
2021/04/05 00:04:08;;;;;;;52.50;28.70;;;153.80;2252.80;;;;;;5094282;28;20024;-68
2021/04/05 00:06:34;;;;;;;53.53;28.88;;;153.80;2252.80;;;;;;5090559;28;20016;-69
2021/04/05 00:09:00;;;;;;;36.45;21.25;;;153.80;2252.80;;;;;;5085582;28;20541;-69
2021/04/05 00:11:26;;;;;;;32.25;20.02;;;153.80;2252.80;;;;;;5093876;28;20054;-69
2021/04/05 00:13:51;;;;;;;25.52;16.55;;;153.80;2252.80;;;;;;5093860;28;20107;-68
2021/04/05 00:16:19;;;;;;;25.30;15.63;;;153.80;2252.80;;;;;;5094107;28;20103;-69
2021/04/05 00:18:46;;;;;;;23.80;15.75;;;153.90;2252.80;;;;;;5093991;28;20381;-68
2021/04/05 00:21:20;;;;;;;24.23;15.73;;;153.90;2252.80;;;;;;5093589;28;20499;-68
2021/04/05 00:23:47;;;;;;;28.52;17.75;;;153.90;2252.80;;;;;;5073894;28;20055;-68
2021/04/05 00:26:13;;;;;;;30.50;18.08;;;153.90;2252.80;;;;;;5073404;28;20027;-68
2021/04/05 00:28:39;;;;;;;28.25;17.75;;;153.80;2252.80;;;;;;5072785;28;20385;-68
2021/04/05 00:31:05;;;;;;;35.83;22.25;;;153.90;2252.80;;;;;;5073709;28;20032;-68
2021/04/05 00:33:31;;;;;;;32.65;19.67;;;153.80;2252.80;;;;;;5072947;28;20393;-69
2021/04/05 00:35:56;;;;;;;30.33;18.67;;;153.80;2252.80;;;;;;5073258;28;20103;-68
2021/04/05 00:38:24;;;;;;;31.63;20.35;;;153.80;2252.80;;;;;;5073081;28;20392;-69
2021/04/05 00:40:58;;;;;;;22.83;15.57;;;153.90;2252.80;;;;;;5061191;28;20034;-68
2021/04/05 00:43:25;;;;;;;19.67;13.60;;;153.90;2252.80;;;;;;5073255;28;20032;-69
2021/04/05 00:45:51;;;;;;;21.67;13.40;;;154.00;2252.80;;;;;;5090592;28;20024;-68
2021/04/05 00:48:17;;;;;;;23.35;15.00;;;153.90;2252.80;;;;;;5093291;28;20020;-70
2021/04/05 00:50:53;;;;;;;31.67;21.25;;;153.90;2252.80;;;;;;5093087;28;20027;-68
2021/04/05 00:53:25;;;;;;;38.72;24.02;;;154.00;2252.80;;;;;;5093253;28;20024;-68
2021/04/05 00:55:51;;;;;;;34.58;21.58;;;154.00;2252.80;;;;;;5092981;28;20058;-69
2021/04/05 00:58:18;;;;;;;33.13;19.80;;;154.00;2252.80;;;;;;5092436;28;20557;-68
2021/04/05 01:00:50;;;;;;;25.17;17.40;;;154.00;2252.80;;;;;;5092880;28;20047;-68
2021/04/05 01:03:24;;;;;;;28.00;18.40;;;154.00;2252.80;;;;;;5093129;28;20035;-68
2021/04/05 01:05:55;;;;;;;30.17;19.75;;;154.00;2252.80;;;;;;5092821;28;20032;-71
2021/04/05 01:08:21;;;;;;;20.60;14.20;;;154.00;2252.80;;;;;;5080861;28;20052;-67
2021/04/05 01:10:47;;;;;;;20.98;13.93;;;154.00;2252.80;;;;;;5092764;28;20103;-68
2021/04/05 01:13:15;;;;;;;19.42;12.60;;;154.00;2252.80;;;;;;5092345;28;20103;-69
2021/04/05 01:15:41;;;;;;;16.80;11.55;;;154.00;2252.80;;;;;;5092699;28;20030;-68
2021/04/05 01:18:07;;;;;;;16.25;11.85;;;154.10;2252.80;;;;;;5092658;28;20499;-75
2021/04/05 01:20:33;;;;;;;18.52;12.25;;;154.00;2252.80;;;;;;5092547;28;20020;-68
2021/04/05 01:23:00;;;;;;;19.30;13.65;;;154.00;2252.80;;;;;;5092426;28;20020;-68
2021/04/05 01:25:26;;;;;;;20.67;14.25;;;153.90;2252.80;;;;;;5092774;28;20035;-68
2021/04/05 01:27:53;;;;;;;30.30;16.92;;;153.70;2252.80;;;;;;5092597;28;20024;-68
2021/04/05 01:30:28;;;;;;;28.15;17.10;;;153.60;2252.80;;;;;;5092046;28;20020;-68
2021/04/05 01:33:04;;;;;;;28.75;17.83;;;153.70;2252.80;;;;;;5092523;28;20027;-69
2021/04/05 01:35:34;;;;;;;36.40;21.08;;;153.60;2252.80;;;;;;5064723;28;20023;-69
2021/04/05 01:38:00;;;;;;;38.55;22.92;;;153.60;2252.80;;;;;;5092349;28;20028;-68
2021/04/05 01:40:26;;;;;;;42.78;23.73;;;153.60;2252.80;;;;;;5090566;28;20035;-69
2021/04/05 01:42:52;;;;;;;41.28;23.83;;;128.90;2252.80;;;;;;5092255;28;20051;-68
2021/04/05 01:45:18;;;;;;;43.28;24.00;;;128.90;2252.80;;;;;;5092029;28;20051;-70
2021/04/05 01:47:45;;;;;;;37.50;22.35;;;128.90;2252.80;;;;;;5092181;28;20473;-68
2021/04/05 01:50:12;;;;;;;35.17;21.23;;;128.90;2252.80;;;;;;5091888;28;20549;-68
2021/04/05 01:52:41;;;;;;;35.88;21.60;;;153.60;2252.80;;;;;;5091985;28;20028;-68
2021/04/05 01:55:08;;;;;;;34.38;21.17;;;153.60;2252.80;;;;;;5092190;28;20028;-68
2021/04/05 01:57:35;;;;;;;44.42;24.08;;;153.60;2252.80;;;;;;5091585;28;20028;-68
2021/04/05 02:00:03;;;;;;;42.75;23.38;;;153.60;2252.80;;;;;;5091515;28;20036;-68
2021/04/05 02:02:29;;;;;;;36.10;20.92;;;153.60;2252.80;;;;;;5091984;28;20136;-68
2021/04/05 02:04:56;;;;;;;31.42;19.40;;;153.60;2252.80;;;;;;5091751;28;20127;-68
2021/04/05 02:07:22;;;;;;;28.73;17.35;;;153.60;2252.80;;;;;;5081297;28;20507;-68
2021/04/05 02:09:48;;;;;;;32.10;20.40;;;153.60;2252.80;;;;;;5090004;28;20473;-69
2021/04/05 02:12:14;;;;;;;26.63;18.10;;;153.60;2252.80;;;;;;5089915;28;20024;-68
2021/04/05 02:14:39;;;;;;;23.25;15.60;;;153.60;2252.80;;;;;;5070656;28;20033;-70
2021/04/05 02:17:05;;;;;;;24.15;16.27;;;153.60;2252.80;;;;;;5071216;28;20031;-69
2021/04/05 02:19:31;;;;;;;27.23;17.10;;;153.60;2252.80;;;;;;5068907;28;20504;-68
2021/04/05 02:21:57;;;;;;;27.73;17.38;;;153.60;2252.80;;;;;;5069675;28;20111;-68
2021/04/05 02:24:23;;;;;;;23.20;15.80;;;128.90;2252.80;;;;;;5070687;28;20499;-68
2021/04/05 02:26:50;;;;;;;23.33;15.90;;;128.90;2252.80;;;;;;5071045;28;20024;-68
2021/04/05 02:29:19;;;;;;;24.80;16.33;;;128.90;2252.80;;;;;;5071017;28;20013;-68
2021/04/05 02:31:45;;;;;;;23.50;16.45;;;128.90;2252.80;;;;;;5071369;28;20107;-70
2021/04/05 02:34:14;;;;;;;25.50;17.00;;;128.80;2252.80;;;;;;5071428;28;20111;-68
2021/04/05 02:36:41;;;;;;;28.85;18.40;;;128.80;2252.80;;;;;;5070615;28;20074;-69
2021/04/05 02:39:09;;;;;;;33.28;20.23;;;128.80;2252.80;;;;;;5071078;28;20043;-68
2021/04/05 02:41:39;;;;;;;38.38;21.67;;;128.80;2252.80;;;;;;5070930;28;20039;-71
2021/04/05 02:44:05;;;;;;;29.25;18.95;;;128.80;2252.80;;;;;;5071089;28;20070;-68
2021/04/05 02:46:35;;;;;;;27.98;18.05;;;128.80;2252.80;;;;;;5070875;28;20085;-73
2021/04/05 02:49:05;;;;;;;27.67;17.15;;;128.80;2252.80;;;;;;5070610;28;20095;-67
2021/04/05 02:51:32;;;;;;;31.77;19.17;;;128.90;2252.80;;;;;;5070839;28;20012;-69
2021/04/05 02:54:00;;;;;;;31.98;19.15;;;128.90;2252.80;;;;;;5070647;28;20069;-69
2021/04/05 02:56:26;;;;;;;36.50;20.85;;;128.90;2252.80;;;;;;5073993;28;20016;-76
2021/04/05 02:58:54;;;;;;;34.78;19.90;;;128.80;2252.80;;;;;;5083524;28;20017;-67
2021/04/05 03:01:20;;;;;;;37.20;21.33;;;128.80;2252.80;;;;;;5070697;28;20052;-68
2021/04/05 03:03:47;;;;;;;48.10;25.02;;;128.80;2252.80;;;;;;5070634;28;20030;-68
2021/04/05 03:06:19;;;;;;;42.83;23.58;;;128.90;2252.80;;;;;;5070734;28;20020;-68
2021/04/05 03:08:45;;;;;;;42.20;22.88;;;153.60;2252.80;;;;;;5070318;28;20020;-70
2021/04/05 03:11:20;;;;;;;39.65;22.73;;;153.70;2252.80;;;;;;5070915;28;20044;-69
2021/04/05 03:13:46;;;;;;;33.17;19.60;;;153.70;2252.80;;;;;;5070687;28;20044;-69
2021/04/05 03:16:16;;;;;;;30.02;18.83;;;153.70;2252.80;;;;;;5070399;28;20056;-74
2021/04/05 03:18:44;;;;;;;28.48;17.92;;;153.80;2252.80;;;;;;5070395;28;20056;-77
2021/04/05 03:21:12;;;;;;;29.08;18.38;;;153.80;2252.80;;;;;;5070347;28;20429;-73
2021/04/05 03:23:40;;;;;;;28.52;19.40;;;153.80;2252.80;;;;;;5070361;28;20736;-73
2021/04/05 03:26:06;;;;;;;27.35;18.42;;;153.80;2252.80;;;;;;5070291;28;20021;-74
2021/04/05 03:28:32;;;;;;;28.02;18.40;;;153.70;2252.80;;;;;;5068938;28;20358;-73
2021/04/05 03:31:04;;;;;;;26.33;17.38;;;153.70;2252.80;;;;;;5070055;28;20028;-73
2021/04/05 03:33:50;;;;;;;25.63;17.17;;;153.70;2252.80;;;;;;5070512;28;20033;-73
2021/04/05 03:36:21;;;;;;;26.17;18.27;;;153.70;2252.80;;;;;;5073740;28;20025;-68
2021/04/05 03:38:47;;;;;;;25.80;17.70;;;153.70;2252.80;;;;;;5074162;28;20508;-68
2021/04/05 03:41:20;;;;;;;27.50;18.20;;;153.70;2252.80;;;;;;5074251;28;20029;-71
2021/04/05 03:44:24;;;;;;;25.60;17.35;;;153.70;2252.80;;;;;;5074612;28;20047;-73
2021/04/05 03:46:54;;;;;;;25.70;16.77;;;153.70;2252.80;;;;;;5071110;28;20115;-69
2021/04/05 03:49:25;;;;;;;26.98;17.67;;;153.70;2252.80;;;;;;5073966;28;20500;-72
2021/04/05 03:52:04;;;;;;;25.63;17.63;;;153.60;2252.80;;;;;;5074205;28;20393;-68
2021/04/05 03:54:45;;;;;;;25.85;17.40;;;153.60;2252.80;;;;;;5073525;28;20032;-69
2021/04/05 03:57:14;;;;;;;25.63;17.08;;;153.70;2252.80;;;;;;5075868;28;20104;-68
2021/04/05 03:59:47;;;;;;;26.35;16.63;;;153.70;2252.80;;;;;;5081515;28;20029;-68
2021/04/05 04:02:22;;;;;;;24.75;17.02;;;153.70;2252.80;;;;;;5073512;28;20040;-67
2021/04/05 04:05:05;;;;;;;25.75;17.35;;;153.70;2252.80;;;;;;5074250;28;20017;-68
2021/04/05 04:07:45;;;;;;;24.55;16.88;;;153.70;2252.80;;;;;;5074020;28;20123;-67
2021/04/05 04:10:14;;;;;;;23.60;16.85;;;153.70;2252.80;;;;;;5073437;28;20028;-68
2021/04/05 04:12:42;;;;;;;26.50;16.67;;;153.60;2252.80;;;;;;5073538;28;20028;-69
2021/04/05 04:15:10;;;;;;;25.40;16.92;;;153.60;2252.80;;;;;;5074153;28;20039;-68
2021/04/05 04:17:37;;;;;;;25.85;16.73;;;153.60;2252.80;;;;;;5072498;28;20032;-68
2021/04/05 04:20:09;;;;;;;25.48;16.92;;;153.60;2252.80;;;;;;5073451;28;20436;-69
2021/04/05 04:22:35;;;;;;;25.30;16.65;;;153.60;2252.80;;;;;;5073206;28;20438;-68
2021/04/05 04:25:01;;;;;;;25.05;16.17;;;153.70;2252.80;;;;;;5073757;28;20478;-69
2021/04/05 04:27:27;;;;;;;24.40;16.83;;;153.70;2252.80;;;;;;5073674;28;20028;-68
2021/04/05 04:29:54;;;;;;;24.55;16.67;;;153.70;2252.80;;;;;;5072897;28;20046;-68
2021/04/05 04:32:21;;;;;;;24.38;16.15;;;153.60;2252.80;;;;;;5073481;28;20037;-78
2021/04/05 04:34:47;;;;;;;24.60;16.90;;;153.70;2252.80;;;;;;5073180;28;20078;-68
2021/04/05 04:37:14;;;;;;;23.55;16.70;;;153.70;2252.80;;;;;;5073368;28;20020;-69
2021/04/05 04:39:40;;;;;;;25.15;17.08;;;153.70;2252.80;;;;;;5072662;28;20027;-69
2021/04/05 04:42:06;;;;;;;24.35;16.95;;;153.70;2252.80;;;;;;5073444;28;20032;-69
2021/04/05 04:44:32;;;;;;;26.35;18.27;;;153.70;2252.80;;;;;;5073037;28;20031;-70
2021/04/05 04:46:58;;;;;;;24.85;16.98;;;153.70;2252.80;;;;;;5072383;28;20103;-68
2021/04/05 04:49:24;;;;;;;25.10;17.27;;;153.70;2252.80;;;;;;5073206;28;20028;-76
2021/04/05 04:51:50;;;;;;;25.52;17.10;;;153.80;2252.80;;;;;;5072892;28;20051;-70
2021/04/05 04:54:16;;;;;;;24.55;16.95;;;153.80;2252.80;;;;;;5073197;28;20154;-69
2021/04/05 04:56:41;;;;;;;39.90;25.50;;;153.80;2252.80;;;;;;5075718;28;20106;-69
2021/04/05 04:59:09;;;;;;;32.45;21.27;;;153.80;2252.80;;;;;;5080238;28;20020;-69
2021/04/05 05:01:43;;;;;;;29.30;18.63;;;153.70;2252.80;;;;;;5072079;28;20599;-69
2021/04/05 05:04:16;;;;;;;24.05;16.58;;;153.70;2252.80;;;;;;5085360;28;20047;-71
2021/04/05 05:06:42;;;;;;;28.45;18.33;;;153.80;2252.80;;;;;;5068061;28;20059;-67
2021/04/05 05:09:08;;;;;;;28.33;19.35;;;153.80;2252.80;;;;;;5072465;28;20024;-69
2021/04/05 05:11:35;;;;;;;28.05;18.35;;;153.70;2252.80;;;;;;5072733;28;20017;-69
2021/04/05 05:14:00;;;;;;;28.15;18.80;;;153.80;2252.80;;;;;;5072688;28;20085;-69
2021/04/05 05:16:27;;;;;;;28.60;19.55;;;153.80;2252.80;;;;;;5072572;28;20025;-69
2021/04/05 05:18:58;;;;;;;26.02;18.60;;;153.90;2252.80;;;;;;5072515;28;20652;-69
2021/04/05 05:21:29;;;;;;;;;;;154.00;2252.80;;;;;;5073021;28;20013;-68
2021/04/05 05:24:07;;;;;;;26.48;18.45;;;153.80;2252.80;;;;;;5072933;28;20304;-68
2021/04/05 05:26:35;;;;;;;28.52;19.25;;;153.70;2252.80;;;;;;5078886;28;20020;-68
2021/04/05 05:29:07;;;;;;;31.13;21.05;;;153.60;2252.80;;;;;;5090382;28;20400;-68
2021/04/05 05:31:41;;;;;;;28.40;19.92;;;128.90;2252.80;;;;;;5089961;28;20091;-68
2021/04/05 05:34:12;;;;;;;32.03;21.05;;;153.80;2252.80;;;;;;5091490;28;20027;-69
2021/04/05 05:36:38;;;;;;;30.05;19.73;;;153.90;2252.80;;;;;;5089215;28;20127;-70
2021/04/05 05:39:06;;;;;;;28.52;18.88;;;154.00;2252.80;;;;;;5089066;28;20028;-68
2021/04/05 05:41:43;;;;;;;35.75;23.55;;;154.10;2252.80;;;;;;5086341;28;20022;-68
2021/04/05 05:44:17;;;;;;;29.10;19.95;;;154.10;2252.80;;;;;;5081103;28;20424;-75
2021/04/05 05:46:49;;;;;;;32.30;20.15;;;154.30;2252.80;;;;;;5071722;28;20074;-69
2021/04/05 05:49:43;;;;;;;27.48;18.00;;;154.20;2252.80;;;;;;5071876;28;20107;-68
2021/04/05 05:52:30;;;;;;;27.60;17.98;;;154.40;2252.80;;;;;;5059623;28;20027;-68
2021/04/05 05:55:38;;;;;;;26.15;18.08;;;154.50;2252.80;;;;;;5071011;28;20028;-69
2021/04/05 05:58:16;;;;;;;39.47;27.60;;;179.20;2252.80;;;;;;5077891;28;20337;-68
2021/04/05 06:00:56;;;;;;;36.63;25.38;;;154.50;2252.80;;;;;;5070597;28;20056;-68
2021/04/05 06:03:34;;;;;;;29.10;20.48;;;154.50;2252.80;;;;;;5071302;28;20031;-69
2021/04/05 06:06:04;;;;;;;27.00;19.25;;;179.20;2252.80;;;;;;5071493;28;20075;-68
2021/04/05 06:08:49;;;;;;;26.88;19.17;;;179.40;2252.80;;;;;;5071208;28;20386;-70
2021/04/05 06:11:38;;;;;;;27.80;18.02;;;179.50;2252.80;;;;;;5071429;28;20028;-69
2021/04/05 06:14:32;;;;;;;25.73;16.83;;;179.50;2252.80;;;;;;5071142;28;20409;-69
2021/04/05 06:17:22;;;;;;;24.50;16.92;;;179.70;2252.80;;;;;;5071449;28;20043;-68
2021/04/05 06:19:53;;;;;;;23.02;14.95;;;179.80;2252.80;;;;;;5070880;28;20501;-70
2021/04/05 06:22:51;;;;;;;20.98;14.77;;;179.90;2252.80;;;;;;5070914;28;20075;-69
2021/04/05 06:25:58;;;;;;;21.30;14.82;;;180.10;2252.80;;;;;;5036690;28;20059;-68
2021/04/05 06:28:54;;;;;;;18.75;13.15;;;205.00;2252.80;;;;;;4996220;28;20136;-69
2021/04/05 06:31:24;;;;;;;19.80;13.77;;;205.30;2252.80;;;;;;5068319;28;20016;-69
2021/04/05 06:33:54;;;;;;;21.17;15.50;;;205.60;2252.80;;;;;;5071114;28;20044;-71
2021/04/05 06:36:23;;;;;;;20.50;14.02;;;230.80;2252.80;;;;;;5070934;28;20036;-69
2021/04/05 06:39:03;;;;;;;16.20;12.00;;;256.80;2252.80;;;;;;5070398;28;20016;-69
2021/04/05 06:41:35;;;;;;;20.75;16.00;;;307.20;2099.20;;;;;;5071034;28;20032;-68
2021/04/05 06:44:33;;;;;;;18.25;14.63;;;308.00;1945.60;;;;;;5070531;28;20016;-69
2021/04/05 06:47:40;;;;;;;18.75;13.45;;;358.90;1766.40;;;;;;5070941;28;20031;-69
2021/04/05 06:50:24;;;;;;;15.57;12.75;;;410.20;1587.20;;;;;;5070773;28;20031;-68
2021/04/05 06:53:11;;;;;;;15.27;12.88;;;460.80;1484.80;;;;;;5070758;28;20497;-71
2021/04/05 06:55:56;;;;;;;19.15;14.98;;;487.00;1356.80;;;;;;5057625;28;20515;-72
2021/04/05 06:58:25;;;;;;;18.17;16.02;;;537.80;1254.40;;;;;;5073472;28;20029;-69
2021/04/05 07:01:12;;;;;;;17.15;14.63;;;563.40;1228.80;;;;;;5077922;28;20052;-69
2021/04/05 07:03:58;;;;;;;15.15;13.55;;;589.30;1126.40;;;;;;5085492;28;20032;-69
2021/04/05 07:06:43;;;;;;;16.17;14.38;;;614.60;1049.60;;;;;;5085687;28;20016;-69
2021/04/05 07:09:12;;;;;;;15.80;13.55;;;615.30;1024.00;;;;;;5085896;28;20035;-69
2021/04/05 07:11:52;;;;;;;15.10;13.50;;;615.10;1024.00;;;;;;5088787;28;20078;-70
2021/04/05 07:14:37;;;;;;;13.60;12.20;;;640.00;998.40;;;;;;5084034;28;20565;-76
2021/04/05 07:17:18;;;;;;;12.38;11.18;;;640.90;947.20;;;;;;5089470;28;20059;-67
2021/04/05 07:20:05;;;;;;;12.63;10.80;;;666.40;921.60;;;;;;5078237;28;20118;-67
2021/04/05 07:22:51;;;;;;;12.80;11.23;;;691.50;896.00;;;;;;5087454;28;20028;-67
2021/04/05 07:25:35;;;;;;;13.02;11.20;;;717.20;870.40;;;;;;5088729;28;20078;-68
2021/04/05 07:28:22;;;;;;;12.98;11.57;;;742.50;870.40;;;;;;5085505;28;20025;-68
2021/04/05 07:30:54;;;;;;;13.02;11.63;;;742.40;819.20;;;;;;5088604;28;20026;-68
2021/04/05 07:33:38;;;;;;;13.40;11.90;;;716.90;870.40;;;;;;5082833;28;20028;-68
2021/04/05 07:36:28;;;;;;;16.17;14.45;;;742.60;844.80;;;;;;5083470;28;20099;-68
2021/04/05 07:39:37;;;;;;;12.35;11.15;;;743.10;819.20;;;;;;5083584;28;20103;-68
2021/04/05 07:42:40;;;;;;;12.18;10.95;;;768.90;819.20;;;;;;5086899;28;20460;-69
2021/04/05 07:45:09;;;;;;;12.43;11.13;;;794.10;793.60;;;;;;5084490;28;20111;-67
2021/04/05 07:47:56;;;;;;;12.68;11.38;;;794.00;844.80;;;;;;5072004;28;20041;-67
2021/04/05 07:50:43;;;;;;;13.30;11.75;;;794.20;819.20;;;;;;5060669;28;20024;-68
2021/04/05 07:53:44;;;;;;;14.93;12.90;;;768.10;793.60;;;;;;5079310;28;20036;-66
2021/04/05 07:56:55;;;;;;;13.20;11.90;;;768.10;819.20;;;;;;5067636;28;20041;-67
2021/04/05 07:59:37;;;;;;;74.85;56.60;;;742.40;819.20;;;;;;5068001;28;20520;-67
2021/04/05 08:02:32;;;;;;;14.40;11.98;;;717.50;819.20;;;;;;5069865;28;20053;-67
2021/04/05 08:05:25;;;;;;;14.75;12.82;;;743.10;819.20;;;;;;5081261;28;20022;-68
2021/04/05 08:07:55;;;;;;;13.70;12.23;;;717.60;819.20;;;;;;5076128;28;20020;-68
2021/04/05 08:10:46;;;;;;;13.52;12.13;;;768.90;768.00;;;;;;5087835;28;20536;-68
2021/04/05 08:13:42;;;;;;;13.77;12.02;;;794.30;768.00;;;;;;5089552;28;20059;-68
2021/04/05 08:16:41;;;;;;;11.55;10.35;;;743.20;793.60;;;;;;5079234;28;20024;-69
2021/04/05 08:19:19;;;;;;;13.73;11.10;;;819.80;742.40;;;;;;5069970;28;20099;-69
2021/04/05 08:22:19;;;;;;;16.85;10.98;;;819.80;716.80;;;;;;5082078;28;20020;-68
2021/04/05 08:24:44;;;;;;;17.60;10.73;;;870.40;691.20;;;;;;5045980;28;20071;-67
2021/04/05 08:27:20;;;;;;;14.70;10.93;;;845.30;742.40;;;;;;5083304;28;20099;-68
2021/04/05 08:30:01;;;;;;;13.73;12.20;;;871.30;665.60;;;;;;5087001;28;20042;-68
2021/04/05 08:32:45;;;;;;;11.15;9.95;;;870.80;716.80;;;;;;5091334;28;20027;-68
2021/04/05 08:35:29;;;;;;;11.27;10.02;;;845.70;742.40;;;;;;5085656;28;20020;-68
2021/04/05 08:38:42;;;;;;;18.65;13.07;;;870.90;691.20;;;;;;5085950;28;20024;-68
2021/04/05 08:41:37;;;;;;;12.32;11.02;;;768.80;768.00;;;;;;5073181;28;20515;-67
2021/04/05 08:44:35;;;;;;;13.93;12.32;;;717.00;793.60;;;;;;5064997;28;20116;-67
2021/04/05 08:47:04;;;;;;;12.02;10.82;;;793.90;768.00;;;;;;5061393;28;20075;-68
2021/04/05 08:49:30;;;;;;;12.00;10.80;;;845.50;716.80;;;;;;5083129;28;20107;-68
2021/04/05 08:52:04;;;;;;;12.02;10.52;;;870.60;691.20;;;;;;5074045;28;20023;-68
2021/04/05 08:54:34;;;;;;;11.75;10.55;;;870.70;691.20;;;;;;5067738;28;20028;-69
2021/04/05 08:57:04;;;;;;;15.15;13.63;;;922.00;665.60;;;;;;5075459;28;20081;-68
2021/04/05 08:59:39;;;;;;;17.67;16.02;;;870.80;691.20;;;;;;5086036;28;20032;-68
2021/04/05 09:02:17;;;;;;;15.65;14.05;;;845.40;716.80;;;;;;5086130;28;20496;-68
2021/04/05 09:04:44;;;;;;;13.27;11.63;;;870.80;691.20;;;;;;5086416;28;20035;-68
2021/04/05 09:07:32;;;;;;;11.98;10.80;;;845.20;742.40;;;;;;5084795;28;20032;-69
2021/04/05 09:10:04;;;;;;;11.73;10.52;;;794.20;742.40;;;;;;5090659;28;20036;-70
2021/04/05 09:12:33;;;;;;;12.15;10.90;;;870.40;691.20;;;;;;5086075;28;20143;-68
2021/04/05 09:15:26;;;;;;;12.48;11.00;;;870.50;716.80;;;;;;5085642;28;20024;-69
2021/04/05 09:18:03;;;;;;;17.02;14.55;;;793.70;768.00;;;;;;5083600;28;20107;-69
2021/04/05 09:20:32;;;;;;;14.15;12.52;;;742.50;819.20;;;;;;5075496;28;20032;-68
2021/04/05 09:23:10;;;;;;;13.63;11.73;;;742.90;793.60;;;;;;5089415;28;20028;-68
2021/04/05 09:25:56;;;;;;;12.18;10.80;;;691.80;793.60;;;;;;5088194;28;20376;-68
2021/04/05 09:28:33;;;;;;;12.80;11.02;;;717.10;793.60;;;;;;5077143;28;20419;-69
2021/04/05 09:31:18;;;;;;;13.20;10.60;;;768.40;768.00;;;;;;5077488;28;20021;-69
2021/04/05 09:34:11;;;;;;;13.02;10.27;;;768.70;768.00;;;;;;5077256;28;20099;-67
2021/04/05 09:36:58;;;;;;;11.40;10.15;;;794.00;768.00;;;;;;5087989;28;20040;-67
2021/04/05 09:39:26;;;;;;;11.93;10.68;;;743.30;793.60;;;;;;5087738;28;20071;-68
2021/04/05 09:42:19;;;;;;;10.40;9.40;;;793.80;793.60;;;;;;5087933;28;20027;-68
2021/04/05 09:45:11;;;;;;;12.82;10.77;;;819.80;742.40;;;;;;5089746;28;20392;-66
2021/04/05 09:48:04;;;;;;;11.68;10.43;;;717.20;768.00;;;;;;5085571;28;20050;-68
2021/04/05 09:50:51;;;;;;;68.00;28.20;;;768.80;742.40;;;;;;5086147;28;20020;-68
2021/04/05 09:53:20;;;;;;;12.75;11.35;;;717.10;768.00;;;;;;5083646;28;20089;-69
2021/04/05 09:55:57;;;;;;;11.88;10.68;;;665.70;844.80;;;;;;5086970;28;20528;-77
2021/04/05 09:58:27;;;;;;;12.27;10.80;;;589.40;896.00;;;;;;5088657;28;20031;-68
2021/04/05 10:01:20;;;;;;;14.45;10.40;;;512.80;998.40;;;;;;5086434;28;20039;-68
2021/04/05 10:03:55;;;;;;;11.25;10.02;;;512.40;1024.00;;;;;;5088208;28;20385;-71
2021/04/05 10:06:24;;;;;;;13.70;10.60;;;436.00;1126.40;;;;;;5088042;28;20024;-68
2021/04/05 10:08:51;;;;;;;12.43;10.00;;;410.40;1228.80;;;;;;5087293;28;20046;-69
2021/04/05 10:11:18;;;;;;;15.10;10.65;;;410.50;1228.80;;;;;;5089905;28;20607;-69
2021/04/05 10:13:48;;;;;;;18.35;15.23;;;435.30;1203.20;;;;;;5088248;28;20016;-68
2021/04/05 10:16:15;;;;;;;16.70;12.93;;;435.20;1203.20;;;;;;5088188;28;20408;-68
2021/04/05 10:18:57;;;;;;;16.20;12.30;;;435.50;1177.60;;;;;;5085162;28;20032;-69
2021/04/05 10:21:24;;;;;;;11.68;10.02;;;410.30;1203.20;;;;;;5089575;28;20031;-68
2021/04/05 10:23:51;;;;;;;12.32;9.73;;;409.90;1228.80;;;;;;5090105;28;20476;-67
2021/04/05 10:26:19;;;;;;;13.95;10.80;;;409.60;1228.80;;;;;;5086653;28;20122;-68
2021/04/05 10:28:48;;;;;;;11.50;8.75;;;384.50;1228.80;;;;;;5085365;28;20036;-68
2021/04/05 10:31:18;;;;;;;14.10;9.80;;;358.90;1305.60;;;;;;5086432;28;20032;-69
2021/04/05 10:33:50;;;;;;;16.23;10.55;;;358.90;1331.20;;;;;;5081584;28;20103;-69
2021/04/05 10:36:21;;;;;;;13.25;10.20;;;358.50;1382.40;;;;;;5088078;28;20370;-69
2021/04/05 10:38:48;;;;;;;14.00;9.10;;;358.90;1356.80;;;;;;5089236;28;20020;-69
2021/04/05 10:41:18;;;;;;;11.18;8.23;;;358.50;1382.40;;;;;;5089188;28;20028;-68
2021/04/05 10:44:00;;;;;;;10.85;8.23;;;359.00;1305.60;;;;;;5089696;28;20046;-68
2021/04/05 10:46:31;;;;;;;11.20;8.23;;;358.40;1331.20;;;;;;5088463;28;20024;-69
2021/04/05 10:49:16;;;;;;;13.70;8.75;;;358.60;1331.20;;;;;;5086162;28;20020;-71
2021/04/05 10:51:46;;;;;;;9.63;7.32;;;358.60;1254.40;;;;;;5088169;28;20025;-69
2021/04/05 10:54:37;;;;;;;9.00;7.07;;;358.70;1254.40;;;;;;5089822;28;20019;-78
2021/04/05 10:57:06;;;;;;;9.20;7.25;;;359.20;1280.00;;;;;;5084393;28;20043;-69
2021/04/05 10:59:47;;;;;;;9.88;7.68;;;358.80;1280.00;;;;;;5081245;28;20016;-70
2021/04/05 11:02:27;;;;;;;10.45;8.07;;;384.10;1254.40;;;;;;5088150;28;20044;-69
2021/04/05 11:04:56;;;;;;;9.70;7.03;;;359.30;1254.40;;;;;;5090010;28;20050;-69
2021/04/05 11:07:24;;;;;;;10.20;7.55;;;384.30;1177.60;;;;;;5077460;28;20480;-68
2021/04/05 11:09:58;;;;;;;10.75;7.78;;;384.30;1228.80;;;;;;5087765;28;20481;-69
2021/04/05 11:12:34;;;;;;;9.25;6.97;;;384.30;1228.80;;;;;;5078639;28;20372;-69
2021/04/05 11:15:03;;;;;;;9.48;6.93;;;384.00;1254.40;;;;;;5087711;28;20012;-68
2021/04/05 11:17:31;;;;;;;8.23;6.70;;;384.30;1228.80;;;;;;5082640;28;20039;-69
2021/04/05 11:19:59;;;;;;;9.13;6.82;;;384.70;1203.20;;;;;;5087506;28;20103;-68
2021/04/05 11:22:28;;;;;;;13.00;9.27;;;410.00;1177.60;;;;;;5081211;28;20027;-68
2021/04/05 11:25:17;;;;;;;24.58;11.90;;;384.90;1203.20;;;;;;5089027;28;20012;-69
2021/04/05 11:27:53;;;;;;;11.40;8.00;;;409.60;1254.40;;;;;;5075683;28;20128;-68
2021/04/05 11:30:30;;;;;;;9.88;6.95;;;384.60;1152.00;;;;;;5085752;28;20099;-69
2021/04/05 11:32:57;;;;;;;7.80;5.65;;;384.60;1177.60;;;;;;5073067;28;20016;-68
2021/04/05 11:35:33;;;;;;;8.75;5.78;;;409.70;1177.60;;;;;;5088867;28;20020;-67
2021/04/05 11:38:02;;;;;;;8.88;6.20;;;384.90;1100.80;;;;;;5089013;28;20024;-68
2021/04/05 11:40:30;;;;;;;7.28;5.35;;;384.80;1126.40;;;;;;5087091;28;20024;-67
2021/04/05 11:42:59;;;;;;;7.72;6.30;;;384.60;1126.40;;;;;;5081651;28;20028;-67
2021/04/05 11:45:30;;;;;;;11.32;7.25;;;410.00;1177.60;;;;;;5067472;28;20031;-71
2021/04/05 11:47:56;;;;;;;;;;;409.60;1152.00;;;;;;5083416;28;20017;-68
2021/04/05 11:50:25;;;;;;;9.57;6.90;;;409.90;1203.20;;;;;;5070366;28;19939;-67
2021/04/05 11:52:52;;;;;;;10.43;7.35;;;410.20;1203.20;;;;;;5079355;28;20035;-67
2021/04/05 11:55:31;;;;;;;9.32;6.03;;;409.70;1177.60;;;;;;5086471;28;20086;-67
2021/04/05 11:58:00;;;;;;;10.25;7.18;;;410.10;1152.00;;;;;;5082989;28;20029;-68
2021/04/05 12:00:39;;;;;;;9.48;6.72;;;410.00;1203.20;;;;;;5083534;28;20020;-67
2021/04/05 12:03:14;;;;;;;12.75;9.18;;;384.60;1203.20;;;;;;5084720;28;20043;-68
2021/04/05 12:05:42;;;;;;;9.65;7.25;;;384.70;1228.80;;;;;;5092305;28;20099;-69
2021/04/05 12:08:12;;;;;;;12.10;8.57;;;409.80;1203.20;;;;;;5085421;28;20028;-67
2021/04/05 12:10:41;;;;;;;14.32;11.07;;;409.60;1177.60;;;;;;5088669;28;20020;-66
2021/04/05 12:13:15;;;;;;;8.93;6.82;;;384.60;1177.60;;;;;;5087000;28;20409;-67
2021/04/05 12:15:44;;;;;;;10.18;7.05;;;384.50;1203.20;;;;;;5092135;28;20134;-66
2021/04/05 12:18:11;;;;;;;8.13;5.93;;;384.30;1254.40;;;;;;5088657;28;20027;-66
2021/04/05 12:20:38;;;;;;;7.85;6.40;;;384.40;1203.20;;;;;;5085897;28;20025;-67
2021/04/05 12:23:10;;;;;;;7.78;6.30;;;384.90;1152.00;;;;;;5082891;28;20040;-67
2021/04/05 12:25:55;;;;;;;8.60;6.20;;;410.00;1203.20;;;;;;5086655;28;20023;-67
2021/04/05 12:28:21;;;;;;;7.90;6.18;;;409.90;1152.00;;;;;;5072946;28;20024;-68
2021/04/05 12:30:54;;;;;;;6.78;5.20;;;410.00;1177.60;;;;;;5085674;28;20103;-69
2021/04/05 12:33:26;;;;;;;10.25;7.63;;;410.30;1152.00;;;;;;5082006;28;20024;-69
2021/04/05 12:35:53;;;;;;;8.63;6.70;;;410.00;1177.60;;;;;;5085429;28;20445;-68
2021/04/05 12:38:32;;;;;;;7.82;6.45;;;410.30;1177.60;;;;;;5085715;28;20469;-67